Time;durP1;ratioP1;P1;durP2;ratioP2;P2;SDS_P1;SDS_P2;PMS_P1;PMS_P2;Temp;Humidity;BMP_temperature;BMP_pressure;BME280_temperature;BME280_humidity;BME280_pressure;Samples;Min_cycle;Max_cycle;Signal;HPM_P1;HPM_P2
2022/07/26 00:01:30;;;;;;;18.63;3.50;;;17.40;99.90;;;;;;5069925;28;20074;-62
2022/07/26 00:03:56;;;;;;;17.70;3.63;;;17.40;99.90;;;;;;5071190;28;20528;-62
2022/07/26 00:06:24;;;;;;;15.65;3.53;;;17.40;99.90;;;;;;5071024;28;20039;-61
2022/07/26 00:08:50;;;;;;;11.75;2.97;;;17.30;99.90;;;;;;5071686;28;20507;-61
2022/07/26 00:11:16;;;;;;;14.18;3.35;;;17.30;99.90;;;;;;5071419;28;20103;-61
2022/07/26 00:13:42;;;;;;;16.10;3.20;;;17.20;99.90;;;;;;5070812;28;20120;-61
2022/07/26 00:16:08;;;;;;;16.25;3.60;;;17.30;99.90;;;;;;5071481;28;20119;-60
2022/07/26 00:18:34;;;;;;;9.10;3.10;;;17.30;99.90;;;;;;5071570;28;20028;-60
2022/07/26 00:21:00;;;;;;;16.77;3.47;;;17.40;99.90;;;;;;5070935;28;20035;-61
2022/07/26 00:23:26;;;;;;;13.70;3.72;;;17.40;99.90;;;;;;5071000;28;20032;-61
2022/07/26 00:25:51;;;;;;;14.65;3.42;;;17.40;99.90;;;;;;5071096;28;20114;-61
2022/07/26 00:28:17;;;;;;;16.08;3.63;;;17.40;99.90;;;;;;5075314;28;20024;-61
2022/07/26 00:30:42;;;;;;;9.25;3.28;;;17.50;99.90;;;;;;5075094;28;20036;-62
2022/07/26 00:33:08;;;;;;;13.32;3.85;;;17.50;99.90;;;;;;5073504;28;20107;-61
2022/07/26 00:35:34;;;;;;;15.43;3.28;;;17.50;99.90;;;;;;5073617;28;20485;-61
2022/07/26 00:37:59;;;;;;;15.52;3.58;;;17.40;99.90;;;;;;5074907;28;20021;-61
2022/07/26 00:40:25;;;;;;;16.30;3.78;;;17.40;99.90;;;;;;5074831;28;20147;-62
2022/07/26 00:42:51;;;;;;;17.52;3.58;;;17.40;99.90;;;;;;5073512;28;20048;-61
2022/07/26 00:45:17;;;;;;;12.95;3.50;;;17.40;99.90;;;;;;5074623;28;20032;-62
2022/07/26 00:47:43;;;;;;;17.00;4.07;;;17.40;99.90;;;;;;5075357;28;20056;-62
2022/07/26 00:50:13;;;;;;;19.17;4.15;;;17.40;99.90;;;;;;5074886;28;20036;-62
2022/07/26 00:52:44;;;;;;;13.57;3.55;;;17.30;99.90;;;;;;5074752;28;20024;-62
2022/07/26 00:55:10;;;;;;;14.68;3.28;;;17.40;99.90;;;;;;5074423;28;20047;-61
2022/07/26 00:57:37;;;;;;;14.38;3.65;;;17.30;99.90;;;;;;5074556;28;20064;-61
2022/07/26 01:00:09;;;;;;;18.48;3.47;;;17.30;99.90;;;;;;5074697;28;20040;-62
2022/07/26 01:02:35;;;;;;;16.58;4.15;;;17.30;99.90;;;;;;5074086;28;20017;-61
2022/07/26 01:05:01;;;;;;;18.02;4.13;;;17.30;99.90;;;;;;5074666;28;20085;-61
2022/07/26 01:07:28;;;;;;;15.63;3.40;;;17.30;99.90;;;;;;5074478;28;20027;-61
2022/07/26 01:09:54;;;;;;;16.25;3.75;;;17.20;99.90;;;;;;5074545;28;20429;-61
2022/07/26 01:12:19;;;;;;;17.73;3.90;;;17.20;99.90;;;;;;5074460;28;20105;-62
2022/07/26 01:14:45;;;;;;;11.70;3.45;;;17.30;99.90;;;;;;5074032;28;20063;-61
2022/07/26 01:17:12;;;;;;;16.88;4.20;;;17.20;99.90;;;;;;5074590;28;20025;-62
2022/07/26 01:19:38;;;;;;;20.30;4.10;;;17.20;99.90;;;;;;5074330;28;20048;-63
2022/07/26 01:22:04;;;;;;;16.17;4.05;;;17.20;99.90;;;;;;5073877;28;20032;-62
2022/07/26 01:24:30;;;;;;;14.82;3.58;;;17.30;99.90;;;;;;5074393;28;20107;-63
2022/07/26 01:26:55;;;;;;;16.00;4.00;;;17.20;99.90;;;;;;5074155;28;20462;-62
2022/07/26 01:29:25;;;;;;;12.95;3.42;;;17.20;99.90;;;;;;5072716;28;20024;-61
2022/07/26 01:31:50;;;;;;;16.98;3.60;;;17.30;99.90;;;;;;5073630;28;20038;-62
2022/07/26 01:34:16;;;;;;;16.52;4.47;;;17.30;99.90;;;;;;5073640;28;20032;-61
2022/07/26 01:36:42;;;;;;;18.02;3.85;;;17.40;99.90;;;;;;5073727;28;20021;-63
2022/07/26 01:39:08;;;;;;;12.57;3.47;;;17.40;99.90;;;;;;5073309;28;20048;-62
2022/07/26 01:41:34;;;;;;;18.63;4.10;;;17.50;99.90;;;;;;5073681;28;20029;-61
2022/07/26 01:44:00;;;;;;;13.38;3.35;;;17.40;99.90;;;;;;5073524;28;20028;-62
2022/07/26 01:46:26;;;;;;;14.63;3.88;;;17.30;99.90;;;;;;5073359;28;20029;-62
2022/07/26 01:48:52;;;;;;;18.05;3.58;;;17.20;99.90;;;;;;5073694;28;20370;-62
2022/07/26 01:51:17;;;;;;;16.05;3.67;;;17.20;99.90;;;;;;5073519;28;20497;-63
2022/07/26 01:53:46;;;;;;;22.67;3.67;;;17.20;99.90;;;;;;5073455;28;20032;-62
2022/07/26 01:56:14;;;;;;;20.88;3.88;;;17.30;99.90;;;;;;5073444;28;20095;-62
2022/07/26 01:58:41;;;;;;;21.00;4.25;;;17.30;99.90;;;;;;5073451;28;20128;-62
2022/07/26 02:01:07;;;;;;;18.52;4.03;;;17.30;99.90;;;;;;5073120;28;20021;-62
2022/07/26 02:03:34;;;;;;;25.33;4.28;;;17.30;99.90;;;;;;5073304;28;20025;-62
2022/07/26 02:06:00;;;;;;;15.68;4.07;;;17.30;99.90;;;;;;5073326;28;20021;-61
2022/07/26 02:08:25;;;;;;;19.42;4.35;;;17.30;99.90;;;;;;5073178;28;20025;-62
2022/07/26 02:11:01;;;;;;;22.33;4.35;;;17.30;99.90;;;;;;5072814;28;20112;-62
2022/07/26 02:13:29;;;;;;;18.52;4.30;;;17.40;99.90;;;;;;5072946;28;20036;-62
2022/07/26 02:15:54;;;;;;;15.27;4.18;;;17.50;99.90;;;;;;5072712;28;20024;-63
2022/07/26 02:18:20;;;;;;;23.83;4.53;;;17.50;99.90;;;;;;5073102;28;20104;-63
2022/07/26 02:20:45;;;;;;;22.42;5.28;;;17.40;99.90;;;;;;5072619;28;20032;-62
2022/07/26 02:23:12;;;;;;;17.48;4.60;;;17.50;99.90;;;;;;5072877;28;20029;-61
2022/07/26 02:25:37;;;;;;;20.77;4.47;;;17.50;99.90;;;;;;5072670;28;20065;-62
2022/07/26 02:28:03;;;;;;;22.60;4.47;;;17.50;99.90;;;;;;5073035;28;20028;-62
2022/07/26 02:30:29;;;;;;;15.20;4.63;;;17.60;99.90;;;;;;5072839;28;20028;-62
2022/07/26 02:32:54;;;;;;;16.80;4.28;;;17.60;99.90;;;;;;5071349;28;20119;-63
2022/07/26 02:35:20;;;;;;;18.80;5.25;;;17.60;99.90;;;;;;5072598;28;20021;-62
2022/07/26 02:37:46;;;;;;;20.17;4.57;;;17.60;99.90;;;;;;5072649;28;20032;-62
2022/07/26 02:40:11;;;;;;;25.90;5.35;;;17.50;99.90;;;;;;5072766;28;20103;-61
2022/07/26 02:42:37;;;;;;;22.35;5.13;;;17.50;99.90;;;;;;5072584;28;20571;-62
2022/07/26 02:45:03;;;;;;;23.95;4.93;;;17.50;99.90;;;;;;5072210;28;20040;-62
2022/07/26 02:47:30;;;;;;;15.70;4.30;;;17.50;99.90;;;;;;5072084;28;20438;-62
2022/07/26 02:49:55;;;;;;;20.63;4.65;;;17.50;99.90;;;;;;5071328;28;20052;-62
2022/07/26 02:52:21;;;;;;;19.60;5.03;;;17.50;99.90;;;;;;5072476;28;20120;-62
2022/07/26 02:54:47;;;;;;;19.48;5.00;;;17.60;99.90;;;;;;5072005;28;20031;-62
2022/07/26 02:57:13;;;;;;;18.98;5.15;;;17.70;99.90;;;;;;5072487;28;20024;-62
2022/07/26 02:59:39;;;;;;;24.15;5.25;;;17.80;99.90;;;;;;5072504;28;20047;-63
2022/07/26 03:02:04;;;;;;;18.95;5.00;;;17.90;99.90;;;;;;5071984;28;20408;-62
2022/07/26 03:04:30;;;;;;;21.92;4.97;;;17.90;99.90;;;;;;5072191;28;20070;-63
2022/07/26 03:06:56;;;;;;;20.13;4.82;;;18.00;99.90;;;;;;5072681;28;20029;-62
2022/07/26 03:09:21;;;;;;;22.63;5.43;;;17.90;99.90;;;;;;5072494;28;20025;-62
2022/07/26 03:11:47;;;;;;;19.27;4.97;;;17.90;99.90;;;;;;5072228;28;20032;-62
2022/07/26 03:14:13;;;;;;;20.50;5.57;;;17.90;99.90;;;;;;5072039;28;20064;-62
2022/07/26 03:16:38;;;;;;;22.60;4.60;;;17.90;99.90;;;;;;5072105;28;20024;-62
2022/07/26 03:19:04;;;;;;;19.98;4.72;;;17.80;99.90;;;;;;5072357;28;20093;-62
2022/07/26 03:21:29;;;;;;;22.48;5.40;;;17.70;99.90;;;;;;5072065;28;20091;-62
2022/07/26 03:23:55;;;;;;;20.25;5.25;;;17.70;99.90;;;;;;5071779;28;20024;-62
2022/07/26 03:26:21;;;;;;;19.90;4.80;;;17.60;99.90;;;;;;5072069;28;20029;-62
2022/07/26 03:28:46;;;;;;;23.00;5.35;;;17.50;99.90;;;;;;5071087;28;20036;-63
2022/07/26 03:31:12;;;;;;;22.90;4.72;;;17.50;99.90;;;;;;5070838;28;20040;-63
2022/07/26 03:33:41;;;;;;;23.50;5.47;;;17.40;99.90;;;;;;5070269;28;20024;-63
2022/07/26 03:36:10;;;;;;;27.55;5.47;;;17.30;99.90;;;;;;5071624;28;20036;-63
2022/07/26 03:38:36;;;;;;;28.65;5.53;;;17.20;99.90;;;;;;5072081;28;20020;-62
2022/07/26 03:41:02;;;;;;;14.45;4.70;;;17.30;99.90;;;;;;5071851;28;20032;-63
2022/07/26 03:43:28;;;;;;;18.65;5.15;;;17.30;99.90;;;;;;5072021;28;20400;-61
2022/07/26 03:45:54;;;;;;;23.02;5.30;;;17.30;99.90;;;;;;5072038;28;20024;-61
2022/07/26 03:48:20;;;;;;;21.98;5.30;;;17.30;99.90;;;;;;5071649;28;20043;-61
2022/07/26 03:50:45;;;;;;;23.35;5.32;;;17.20;99.90;;;;;;5071686;28;20032;-61
2022/07/26 03:53:11;;;;;;;24.42;5.95;;;17.20;99.90;;;;;;5071311;28;20050;-62
2022/07/26 03:58:21;;;;;;;22.38;5.78;;;17.20;99.90;;;;;;5071267;28;20059;-62
2022/07/26 04:00:46;;;;;;;21.02;6.00;;;17.20;99.90;;;;;;5071025;28;20029;-62
2022/07/26 04:03:12;;;;;;;19.38;5.53;;;17.20;99.90;;;;;;5071308;28;20021;-62
2022/07/26 04:05:38;;;;;;;19.88;5.93;;;17.20;99.90;;;;;;5071256;28;20113;-63
2022/07/26 04:08:04;;;;;;;25.35;6.03;;;17.20;99.90;;;;;;5071799;28;20028;-61
2022/07/26 04:10:29;;;;;;;22.92;5.72;;;17.20;99.90;;;;;;5071257;28;20031;-63
2022/07/26 04:12:55;;;;;;;18.38;5.32;;;17.20;99.90;;;;;;5069775;28;20058;-61
2022/07/26 04:15:21;;;;;;;18.20;5.63;;;17.20;99.90;;;;;;5071366;28;20529;-63
2022/07/26 04:17:47;;;;;;;22.55;5.80;;;17.20;99.90;;;;;;5071344;28;20017;-62
2022/07/26 04:20:13;;;;;;;22.50;5.75;;;17.30;99.90;;;;;;5069808;28;20127;-61
2022/07/26 04:22:39;;;;;;;22.17;5.22;;;17.30;99.90;;;;;;5070717;28;20092;-61
2022/07/26 04:25:07;;;;;;;18.95;5.35;;;17.30;99.90;;;;;;5069526;28;20036;-61
2022/07/26 04:27:33;;;;;;;22.08;6.15;;;17.30;99.90;;;;;;5071313;28;20035;-62
2022/07/26 04:29:59;;;;;;;23.33;5.97;;;17.30;99.90;;;;;;5071266;28;20228;-62
2022/07/26 04:32:24;;;;;;;23.23;5.30;;;17.30;99.90;;;;;;5069951;28;20084;-63
2022/07/26 04:34:50;;;;;;;21.73;5.65;;;17.30;99.90;;;;;;5071262;28;20151;-62
2022/07/26 04:37:15;;;;;;;14.32;5.13;;;17.40;99.90;;;;;;5069740;28;20029;-62
2022/07/26 04:39:41;;;;;;;19.27;5.38;;;17.40;99.90;;;;;;5071450;28;20036;-63
2022/07/26 04:42:07;;;;;;;23.95;5.20;;;17.40;99.90;;;;;;5071024;28;20441;-62
2022/07/26 04:44:32;;;;;;;27.60;6.38;;;17.50;99.90;;;;;;5071037;28;20421;-62
2022/07/26 04:46:58;;;;;;;20.95;5.60;;;17.50;99.90;;;;;;5070702;28;20032;-62
2022/07/26 04:49:24;;;;;;;18.77;5.10;;;17.50;99.90;;;;;;5071247;28;20025;-63
2022/07/26 04:51:49;;;;;;;25.10;6.10;;;17.50;99.90;;;;;;5070724;28;20115;-65
2022/07/26 04:54:19;;;;;;;19.90;5.90;;;17.50;99.90;;;;;;5070469;28;20033;-62
2022/07/26 04:56:46;;;;;;;20.13;5.30;;;17.50;99.90;;;;;;5069436;28;20115;-62
2022/07/26 04:59:11;;;;;;;20.17;5.47;;;17.50;99.90;;;;;;5070856;28;20041;-63
2022/07/26 05:01:37;;;;;;;14.63;4.70;;;17.50;99.90;;;;;;5071126;28;20351;-62
2022/07/26 05:04:03;;;;;;;14.80;5.25;;;17.60;99.90;;;;;;5070414;28;20497;-63
2022/07/26 05:06:28;;;;;;;14.45;5.13;;;17.60;99.90;;;;;;5070503;28;20024;-62
2022/07/26 05:08:54;;;;;;;19.00;4.65;;;17.60;99.90;;;;;;5070388;28;20039;-62
2022/07/26 05:11:20;;;;;;;18.13;4.70;;;17.60;99.90;;;;;;5068983;28;20043;-63
2022/07/26 05:13:45;;;;;;;16.52;4.95;;;17.70;99.90;;;;;;5071647;28;20041;-62
2022/07/26 05:16:11;;;;;;;18.63;5.05;;;17.90;99.90;;;;;;5073602;28;20033;-62
2022/07/26 05:18:36;;;;;;;18.30;5.10;;;18.00;99.90;;;;;;5072619;28;20075;-62
2022/07/26 05:21:02;;;;;;;18.08;4.43;;;18.10;99.90;;;;;;5073911;28;20074;-63
2022/07/26 05:23:28;;;;;;;20.83;4.88;;;18.20;99.90;;;;;;5074138;28;20103;-63
2022/07/26 05:25:54;;;;;;;16.02;4.68;;;18.20;99.90;;;;;;5074432;28;20473;-63
2022/07/26 05:28:19;;;;;;;15.55;5.15;;;18.30;99.90;;;;;;5074046;28;20209;-62
2022/07/26 05:30:45;;;;;;;16.77;4.70;;;18.30;99.90;;;;;;5073611;28;20405;-64
2022/07/26 05:33:11;;;;;;;17.88;4.95;;;18.30;99.90;;;;;;5074025;28;20102;-63
2022/07/26 05:35:37;;;;;;;16.15;4.50;;;18.60;99.90;;;;;;5072528;28;20028;-62
2022/07/26 05:38:03;;;;;;;19.00;4.45;;;18.70;99.90;;;;;;5072389;28;20032;-61
2022/07/26 05:40:28;;;;;;;13.30;4.43;;;18.80;99.90;;;;;;5073181;28;20025;-63
2022/07/26 05:42:54;;;;;;;11.65;4.43;;;18.90;99.90;;;;;;5072093;28;20020;-62
2022/07/26 05:45:19;;;;;;;11.27;4.45;;;19.00;99.90;;;;;;5073073;28;20060;-62
2022/07/26 05:47:49;;;;;;;14.68;4.00;;;18.90;99.90;;;;;;5073183;28;20033;-62
2022/07/26 05:50:14;;;;;;;13.45;3.80;;;18.70;99.90;;;;;;5073418;28;20028;-62
2022/07/26 05:52:40;;;;;;;11.30;3.72;;;18.90;99.90;;;;;;5073316;28;20029;-62
2022/07/26 05:55:06;;;;;;;15.77;3.72;;;18.90;99.90;;;;;;5071477;28;20072;-66
2022/07/26 05:57:32;;;;;;;15.30;3.67;;;19.00;99.90;;;;;;5072882;28;20032;-62
2022/07/26 05:59:57;;;;;;;16.08;3.95;;;19.00;99.90;;;;;;5073080;28;20477;-62
2022/07/26 06:02:23;;;;;;;10.85;3.65;;;18.90;99.90;;;;;;5072968;28;20025;-62
2022/07/26 06:04:49;;;;;;;14.90;3.28;;;18.80;99.90;;;;;;5072823;28;20098;-62
2022/07/26 06:07:15;;;;;;;14.40;3.80;;;18.80;99.90;;;;;;5072789;28;20464;-62
2022/07/26 06:09:40;;;;;;;15.73;3.22;;;18.90;99.90;;;;;;5073375;28;20558;-63
2022/07/26 06:12:06;;;;;;;11.50;3.53;;;18.90;99.90;;;;;;5071429;28;20319;-62
2022/07/26 06:14:32;;;;;;;11.90;3.47;;;18.90;99.90;;;;;;5072544;28;20029;-63
2022/07/26 06:16:57;;;;;;;13.43;3.35;;;18.80;99.90;;;;;;5072564;28;20037;-62
2022/07/26 06:19:23;;;;;;;15.07;3.38;;;18.80;99.90;;;;;;5072941;28;20030;-62
2022/07/26 06:21:49;;;;;;;12.50;3.13;;;18.90;99.90;;;;;;5072668;28;20025;-62
2022/07/26 06:24:14;;;;;;;13.77;3.38;;;19.00;99.90;;;;;;5072145;28;20034;-62
2022/07/26 06:26:40;;;;;;;10.77;3.20;;;19.10;99.90;;;;;;5072477;28;20021;-62
2022/07/26 06:29:06;;;;;;;12.32;3.05;;;19.20;99.90;;;;;;5072948;28;20535;-62
2022/07/26 06:31:31;;;;;;;11.80;3.35;;;19.10;99.90;;;;;;5072287;28;20198;-62
2022/07/26 06:33:57;;;;;;;11.20;3.00;;;19.00;99.90;;;;;;5072382;28;20549;-62
2022/07/26 06:36:23;;;;;;;8.57;2.88;;;19.00;99.90;;;;;;5072095;28;20024;-62
2022/07/26 06:38:49;;;;;;;9.93;2.63;;;19.10;99.90;;;;;;5072407;28;20481;-62
2022/07/26 06:41:14;;;;;;;9.25;3.10;;;19.10;99.90;;;;;;5072247;28;20029;-62
2022/07/26 06:43:40;;;;;;;13.35;3.10;;;19.20;99.90;;;;;;5072010;28;20128;-63
2022/07/26 06:46:06;;;;;;;12.50;2.95;;;19.20;99.90;;;;;;5071006;28;20414;-62
2022/07/26 06:48:32;;;;;;;13.85;3.10;;;19.10;99.90;;;;;;5072279;28;20021;-63
2022/07/26 06:50:57;;;;;;;9.80;2.90;;;19.20;99.90;;;;;;5071982;28;20028;-62
2022/07/26 06:53:23;;;;;;;11.35;2.72;;;19.30;99.90;;;;;;5072102;28;20031;-62
2022/07/26 06:55:48;;;;;;;9.23;2.65;;;19.20;99.90;;;;;;5071759;28;20029;-63
2022/07/26 06:58:14;;;;;;;14.13;3.35;;;19.30;99.90;;;;;;5070604;28;20041;-63
2022/07/26 07:00:40;;;;;;;8.27;2.75;;;19.50;99.90;;;;;;5071807;28;20024;-62
2022/07/26 07:03:05;;;;;;;8.00;2.65;;;19.60;99.90;;;;;;5071603;28;20437;-62
2022/07/26 07:05:31;;;;;;;9.68;3.13;;;19.60;99.90;;;;;;5071682;28;20032;-62
2022/07/26 07:07:56;;;;;;;9.50;3.10;;;19.40;99.90;;;;;;5071780;28;20036;-62
2022/07/26 07:10:22;;;;;;;10.95;3.05;;;19.30;99.90;;;;;;5071504;28;20105;-62
2022/07/26 07:12:48;;;;;;;7.75;2.55;;;19.40;99.90;;;;;;5071740;28;20103;-62
2022/07/26 07:15:13;;;;;;;7.05;2.78;;;19.50;99.90;;;;;;5071336;28;20101;-62
2022/07/26 07:17:39;;;;;;;7.95;3.10;;;19.50;99.90;;;;;;5071786;28;20349;-62
2022/07/26 07:20:05;;;;;;;6.97;2.90;;;19.30;99.90;;;;;;5071455;28;20035;-63
2022/07/26 07:22:31;;;;;;;11.57;3.50;;;19.50;99.90;;;;;;5069927;28;20078;-60
2022/07/26 07:24:57;;;;;;;10.48;3.60;;;19.40;99.90;;;;;;5071453;28;20032;-60
2022/07/26 07:27:23;;;;;;;9.57;2.70;;;19.40;99.90;;;;;;5071144;28;20039;-60
2022/07/26 07:29:49;;;;;;;8.25;3.05;;;19.50;99.90;;;;;;5071334;28;20025;-61
2022/07/26 07:32:14;;;;;;;5.95;2.45;;;19.70;99.90;;;;;;5071228;28;20050;-60
2022/07/26 07:34:40;;;;;;;8.38;3.08;;;19.60;99.90;;;;;;5071055;28;20090;-61
2022/07/26 07:37:06;;;;;;;8.82;2.80;;;19.60;99.90;;;;;;5069409;28;20067;-63
2022/07/26 07:39:31;;;;;;;12.80;3.15;;;19.80;99.90;;;;;;5071609;28;20024;-62
2022/07/26 07:41:57;;;;;;;7.57;2.72;;;19.90;99.90;;;;;;5071009;28;20020;-62
2022/07/26 07:44:23;;;;;;;7.20;2.78;;;19.90;99.90;;;;;;5071203;28;20082;-62
2022/07/26 07:46:48;;;;;;;8.18;2.20;;;20.00;99.90;;;;;;5070929;28;20047;-62
2022/07/26 07:49:14;;;;;;;8.38;3.05;;;20.00;99.90;;;;;;5071299;28;20024;-62
2022/07/26 07:51:40;;;;;;;12.68;2.80;;;19.90;99.90;;;;;;5069749;28;20040;-62
2022/07/26 07:54:06;;;;;;;8.48;2.55;;;20.10;99.90;;;;;;5070813;28;20036;-62
2022/07/26 07:56:32;;;;;;;8.63;2.53;;;20.10;99.90;;;;;;5069730;28;20032;-62
2022/07/26 07:58:58;;;;;;;12.52;2.72;;;20.20;99.90;;;;;;5070902;28;20158;-62
2022/07/26 08:01:24;;;;;;;10.40;2.53;;;20.40;99.90;;;;;;5070954;28;20520;-62
2022/07/26 08:03:49;;;;;;;8.68;2.35;;;20.60;99.90;;;;;;5071215;28;20032;-62
2022/07/26 08:06:15;;;;;;;10.38;2.40;;;20.60;99.90;;;;;;5070822;28;20401;-62
2022/07/26 08:08:41;;;;;;;8.18;2.50;;;20.70;99.90;;;;;;5071232;28;20385;-62
2022/07/26 08:11:07;;;;;;;7.35;2.20;;;20.30;99.90;;;;;;5070751;28;20024;-63
2022/07/26 08:13:32;;;;;;;8.65;2.33;;;20.40;99.90;;;;;;5070981;28;20618;-62
2022/07/26 08:15:58;;;;;;;10.52;2.30;;;20.70;99.90;;;;;;5070793;28;20055;-62
2022/07/26 08:18:24;;;;;;;8.57;2.20;;;20.90;99.90;;;;;;5071142;28;20100;-62
2022/07/26 08:20:51;;;;;;;9.43;2.47;;;21.10;99.90;;;;;;5070663;28;20020;-63
2022/07/26 08:23:17;;;;;;;7.57;2.47;;;21.30;99.90;;;;;;5070586;28;20048;-62
2022/07/26 08:25:42;;;;;;;6.10;2.50;;;21.50;99.90;;;;;;5070933;28;20056;-63
2022/07/26 08:28:08;;;;;;;7.93;2.30;;;21.40;99.90;;;;;;5070711;28;20039;-62
2022/07/26 08:30:33;;;;;;;7.93;2.83;;;21.40;99.90;;;;;;5070778;28;20043;-62
2022/07/26 08:33:00;;;;;;;7.43;2.33;;;21.50;99.90;;;;;;5070559;28;20017;-62
2022/07/26 08:35:28;;;;;;;8.82;2.45;;;22.30;99.90;;;;;;5070466;28;20162;-63
2022/07/26 08:37:54;;;;;;;7.78;2.35;;;22.80;99.90;;;;;;5070634;28;20746;-63
2022/07/26 08:40:20;;;;;;;5.82;2.42;;;23.30;99.90;;;;;;5070666;28;20106;-63
2022/07/26 08:42:50;;;;;;;6.97;2.22;;;23.60;99.90;;;;;;5070236;28;20029;-63
2022/07/26 08:45:22;;;;;;;9.73;2.50;;;23.80;99.90;;;;;;5070355;28;20043;-63
2022/07/26 08:47:48;;;;;;;6.80;1.95;;;23.70;99.90;;;;;;5070582;28;20020;-63
2022/07/26 08:50:14;;;;;;;8.07;2.47;;;24.10;99.90;;;;;;5074590;28;20028;-63
2022/07/26 08:52:41;;;;;;;6.75;2.42;;;24.90;99.90;;;;;;5072799;28;20036;-63
2022/07/26 08:55:07;;;;;;;5.30;2.10;;;25.60;99.90;;;;;;5074993;28;20036;-63
2022/07/26 08:57:33;;;;;;;6.63;2.15;;;26.40;99.90;;;;;;5074517;28;20021;-63
2022/07/26 09:00:24;;;;;;;6.88;2.60;;;26.70;99.90;;;;;;5074411;28;20490;-64
2022/07/26 09:02:50;;;;;;;6.72;2.40;;;25.80;99.90;;;;;;5073984;28;20107;-64
2022/07/26 09:05:29;;;;;;;6.53;1.90;;;25.00;99.90;;;;;;5072667;28;20090;-64
2022/07/26 09:07:56;;;;;;;4.70;2.10;;;24.90;99.90;;;;;;5074213;28;20545;-64
2022/07/26 09:10:22;;;;;;;9.05;2.17;;;25.30;99.90;;;;;;5074030;28;20081;-63
2022/07/26 09:12:57;;;;;;;11.07;2.10;;;25.70;99.90;;;;;;5073876;28;20029;-63
2022/07/26 09:15:25;;;;;;;4.70;1.92;;;26.70;99.90;;;;;;5073733;28;20075;-64
2022/07/26 09:17:54;;;;;;;9.43;2.33;;;27.60;99.60;;;;;;5073941;28;20016;-64
2022/07/26 09:20:28;;;;;;;7.38;2.30;;;26.70;99.90;;;;;;5073797;28;20462;-64
2022/07/26 09:23:08;;;;;;;6.40;2.10;;;25.80;99.90;;;;;;5073987;28;20511;-63
2022/07/26 09:25:36;;;;;;;6.00;2.17;;;24.90;99.90;;;;;;5073781;28;20086;-63
2022/07/26 09:28:03;;;;;;;7.32;2.03;;;25.00;99.90;;;;;;5073807;28;20028;-64
2022/07/26 09:30:30;;;;;;;6.60;1.90;;;25.40;99.90;;;;;;5073837;28;20039;-64
2022/07/26 09:33:05;;;;;;;5.47;1.88;;;25.40;99.90;;;;;;5073663;28;20401;-64
2022/07/26 09:35:38;;;;;;;5.95;2.00;;;25.00;99.90;;;;;;5073524;28;20031;-63
2022/07/26 09:38:14;;;;;;;3.78;1.58;;;24.20;99.90;;;;;;5073808;28;20478;-63
2022/07/26 09:40:40;;;;;;;4.20;1.48;;;24.20;99.90;;;;;;5073413;28;20016;-63
2022/07/26 09:43:07;;;;;;;6.70;1.80;;;24.00;99.90;;;;;;5073300;28;20436;-64
2022/07/26 09:45:34;;;;;;;7.22;1.92;;;24.30;99.90;;;;;;5073208;28;20032;-63
2022/07/26 09:48:02;;;;;;;6.60;1.70;;;24.70;99.90;;;;;;5073412;28;20032;-67
2022/07/26 09:50:31;;;;;;;9.38;1.60;;;24.70;99.90;;;;;;5073018;28;20032;-63
2022/07/26 09:52:57;;;;;;;8.60;1.77;;;24.70;99.90;;;;;;5072419;28;20024;-63
2022/07/26 09:55:23;;;;;;;5.03;1.45;;;24.70;99.90;;;;;;5073463;28;20122;-64
2022/07/26 09:57:50;;;;;;;5.35;1.80;;;24.50;99.90;;;;;;5073129;28;20064;-64
2022/07/26 10:00:17;;;;;;;3.53;1.50;;;24.30;99.90;;;;;;5072567;28;20546;-63
2022/07/26 10:02:42;;;;;;;7.47;2.00;;;24.70;99.90;;;;;;5072986;28;20028;-63
2022/07/26 10:05:08;;;;;;;3.78;1.45;;;24.90;99.90;;;;;;5072961;28;20033;-64
2022/07/26 10:07:35;;;;;;;3.45;1.55;;;24.70;99.90;;;;;;5072870;28;20024;-63
2022/07/26 10:10:05;;;;;;;5.80;1.45;;;24.60;99.90;;;;;;5073087;28;20033;-63
2022/07/26 10:12:32;;;;;;;4.55;1.58;;;23.90;99.90;;;;;;5072653;28;20028;-63
2022/07/26 10:14:58;;;;;;;2.85;1.45;;;24.30;99.90;;;;;;5072736;28;20055;-64
2022/07/26 10:17:32;;;;;;;4.00;1.50;;;24.30;99.90;;;;;;5072376;28;20461;-64
2022/07/26 10:20:03;;;;;;;6.03;1.27;;;24.60;99.90;;;;;;5072736;28;20036;-64
2022/07/26 10:22:32;;;;;;;4.10;0.95;;;24.60;99.90;;;;;;5072474;28;20013;-64
2022/07/26 10:25:21;;;;;;;1.45;0.85;;;24.70;99.90;;;;;;5072822;28;20043;-64
2022/07/26 10:27:54;;;;;;;3.58;0.90;;;24.70;99.90;;;;;;5043923;28;20036;-64
2022/07/26 10:30:26;;;;;;;3.60;0.90;;;24.80;99.90;;;;;;5071525;28;20036;-63
2022/07/26 10:33:23;;;;;;;5.07;0.60;;;24.40;99.90;;;;;;5072802;28;20119;-63
2022/07/26 10:35:48;;;;;;;1.98;0.85;;;24.50;99.90;;;;;;5060485;28;20125;-64
2022/07/26 10:38:20;;;;;;;4.10;0.70;;;24.60;99.90;;;;;;5072794;28;20121;-63
2022/07/26 10:41:06;;;;;;;2.15;0.77;;;24.50;99.90;;;;;;5072615;28;20032;-64
2022/07/26 10:43:33;;;;;;;3.40;1.10;;;24.80;99.90;;;;;;5072640;28;20028;-65
2022/07/26 10:46:17;;;;;;;2.38;0.75;;;26.60;99.90;;;;;;5072566;28;20053;-64
2022/07/26 10:49:03;;;;;;;1.65;0.70;;;27.80;99.90;;;;;;5073146;28;20096;-61
2022/07/26 10:51:39;;;;;;;2.42;0.80;;;28.10;99.10;;;;;;5072245;28;20472;-62
2022/07/26 10:54:10;;;;;;;2.28;1.20;;;28.80;97.00;;;;;;5072278;28;20043;-62
2022/07/26 10:56:36;;;;;;;3.58;0.90;;;28.20;98.20;;;;;;5072007;28;20488;-61
2022/07/26 10:59:03;;;;;;;1.67;0.60;;;27.90;97.50;;;;;;5070924;28;20036;-62
2022/07/26 11:01:36;;;;;;;3.88;0.82;;;27.30;98.70;;;;;;5071879;28;20082;-61
2022/07/26 11:04:02;;;;;;;2.63;0.90;;;26.30;99.90;;;;;;5072575;28;20033;-61
2022/07/26 11:06:29;;;;;;;3.45;0.90;;;25.90;99.90;;;;;;5072420;28;20060;-61
2022/07/26 11:08:55;;;;;;;5.65;1.17;;;26.20;99.90;;;;;;5072154;28;20439;-61
2022/07/26 11:11:32;;;;;;;2.15;0.88;;;25.70;99.90;;;;;;5071239;28;20032;-60
2022/07/26 11:14:08;;;;;;;2.92;0.90;;;25.30;99.90;;;;;;5071661;28;20358;-61
2022/07/26 11:16:46;;;;;;;2.22;0.70;;;25.10;99.90;;;;;;5071724;28;20024;-62
2022/07/26 11:19:14;;;;;;;1.17;0.50;;;24.60;99.90;;;;;;5072340;28;20066;-59
2022/07/26 11:21:40;;;;;;;1.42;0.50;;;24.70;99.90;;;;;;5071622;28;20028;-60
2022/07/26 11:24:07;;;;;;;4.65;1.10;;;24.50;99.90;;;;;;5071474;28;20488;-60
2022/07/26 11:26:41;;;;;;;1.15;0.70;;;24.60;99.90;;;;;;5071774;28;20027;-60
2022/07/26 11:29:06;;;;;;;1.45;0.60;;;24.90;99.90;;;;;;5071767;28;20235;-60
2022/07/26 11:31:45;;;;;;;0.68;0.40;;;25.20;99.90;;;;;;5071574;28;20031;-61
2022/07/26 11:34:19;;;;;;;2.33;0.52;;;25.50;99.90;;;;;;5071482;28;20020;-60
2022/07/26 11:36:45;;;;;;;1.13;0.50;;;25.10;99.90;;;;;;5071826;28;20032;-62
2022/07/26 11:39:26;;;;;;;2.25;0.95;;;24.80;99.90;;;;;;5071947;28;20420;-61
2022/07/26 11:42:02;;;;;;;1.38;0.50;;;24.50;99.90;;;;;;5071381;28;20024;-60
2022/07/26 11:44:29;;;;;;;2.83;0.65;;;24.70;99.90;;;;;;5071235;28;20566;-60
2022/07/26 11:46:56;;;;;;;3.88;0.70;;;24.90;99.90;;;;;;5071563;28;20020;-61
2022/07/26 11:49:24;;;;;;;1.10;0.57;;;25.10;99.90;;;;;;5070740;28;20054;-61
2022/07/26 11:51:53;;;;;;;4.55;0.60;;;24.90;99.90;;;;;;5071973;28;20107;-61
2022/07/26 11:54:24;;;;;;;1.02;0.40;;;25.00;99.90;;;;;;5070839;28;20028;-60
2022/07/26 11:56:54;;;;;;;1.55;0.70;;;24.90;99.90;;;;;;5070994;28;20485;-60
2022/07/26 11:59:22;;;;;;;1.75;0.70;;;24.70;99.90;;;;;;5071251;28;20116;-61
2022/07/26 12:01:48;;;;;;;1.90;0.80;;;24.40;99.90;;;;;;5071239;28;20033;-60
2022/07/26 12:04:22;;;;;;;1.63;0.65;;;24.10;99.90;;;;;;5071791;28;20025;-61
2022/07/26 12:06:49;;;;;;;1.27;0.60;;;24.30;99.90;;;;;;5071197;28;20028;-60
2022/07/26 12:09:36;;;;;;;4.03;0.90;;;24.40;99.90;;;;;;5071110;28;20032;-61
2022/07/26 12:12:05;;;;;;;4.15;1.08;;;24.70;99.90;;;;;;5070832;28;20093;-61
2022/07/26 12:14:34;;;;;;;1.88;1.20;;;24.90;99.90;;;;;;5071233;28;20029;-60
2022/07/26 12:17:16;;;;;;;2.90;0.90;;;24.90;99.90;;;;;;5071154;28;20024;-60
2022/07/26 12:19:43;;;;;;;2.95;1.50;;;25.20;99.90;;;;;;5071099;28;20111;-60
2022/07/26 12:22:16;;;;;;;5.07;1.65;;;24.80;99.90;;;;;;5071701;28;20412;-61
2022/07/26 12:24:50;;;;;;;5.97;1.60;;;24.40;99.90;;;;;;5075058;28;20033;-61
2022/07/26 12:27:22;;;;;;;1.88;1.02;;;23.70;99.90;;;;;;5074855;28;20032;-61
2022/07/26 12:29:53;;;;;;;3.70;1.23;;;23.50;99.90;;;;;;5075252;28;20052;-60
2022/07/26 12:32:30;;;;;;;3.45;1.48;;;23.20;99.90;;;;;;5075536;28;20033;-62
2022/07/26 12:34:58;;;;;;;4.97;1.20;;;23.00;99.90;;;;;;5075214;28;20107;-60
2022/07/26 12:37:25;;;;;;;5.00;1.20;;;22.90;99.90;;;;;;5075533;28;20151;-60
2022/07/26 12:39:59;;;;;;;2.08;1.10;;;22.70;99.90;;;;;;5075181;28;20047;-60
2022/07/26 12:42:28;;;;;;;2.88;1.30;;;22.60;99.90;;;;;;5073478;28;20020;-59
2022/07/26 12:44:53;;;;;;;2.10;0.85;;;22.40;99.90;;;;;;5073400;28;20078;-61